Time;durP1;ratioP1;P1;durP2;ratioP2;P2;SDS_P1;SDS_P2;PMS_P1;PMS_P2;Temp;Humidity;BMP_temperature;BMP_pressure;BME280_temperature;BME280_humidity;BME280_pressure;Samples;Min_cycle;Max_cycle;Signal;HPM_P1;HPM_P2
2022/05/24 00:00:28;;;;;;;3.05;1.65;;;16.00;88.80;;;;;;4999854;28;20046;-86
2022/05/24 00:02:54;;;;;;;2.70;1.60;;;16.00;88.70;;;;;;5002950;28;20236;-85
2022/05/24 00:05:22;;;;;;;4.32;1.80;;;15.90;89.00;;;;;;4989287;28;20029;-85
2022/05/24 00:07:48;;;;;;;4.60;1.50;;;15.90;88.90;;;;;;4976777;28;20143;-84
2022/05/24 00:10:17;;;;;;;3.75;1.70;;;15.90;89.00;;;;;;4990153;28;20474;-83
2022/05/24 00:12:43;;;;;;;2.70;1.20;;;15.80;88.70;;;;;;4989329;28;20299;-85
2022/05/24 00:15:24;;;;;;;2.97;1.52;;;15.80;89.00;;;;;;4976983;28;20033;-84
2022/05/24 00:17:55;;;;;;;3.50;1.20;;;15.70;88.40;;;;;;4981300;28;20203;-84
2022/05/24 00:20:24;;;;;;;4.63;1.38;;;15.70;88.70;;;;;;4989262;28;20037;-85
2022/05/24 00:22:49;;;;;;;3.57;1.60;;;15.70;88.80;;;;;;4975785;28;20292;-84
2022/05/24 00:25:15;;;;;;;3.45;1.40;;;15.60;88.70;;;;;;5001262;28;20038;-84
2022/05/24 00:27:41;;;;;;;3.15;1.40;;;15.60;88.70;;;;;;5013033;28;20026;-84
2022/05/24 00:30:08;;;;;;;2.60;1.30;;;15.50;88.70;;;;;;4978181;28;20479;-85
2022/05/24 00:32:33;;;;;;;4.13;1.50;;;15.50;88.80;;;;;;5010382;28;20436;-83
2022/05/24 00:34:59;;;;;;;2.97;1.50;;;15.50;88.90;;;;;;5011464;28;20372;-84
2022/05/24 00:37:26;;;;;;;2.80;1.30;;;15.40;89.10;;;;;;5016066;28;20334;-84
2022/05/24 00:39:52;;;;;;;2.55;1.25;;;15.40;89.20;;;;;;4997654;28;20333;-84
2022/05/24 00:42:21;;;;;;;2.60;1.30;;;15.30;89.20;;;;;;4991608;28;20042;-84
2022/05/24 00:45:01;;;;;;;4.53;1.40;;;15.30;89.10;;;;;;4998200;28;20042;-85
2022/05/24 00:47:41;;;;;;;3.00;1.20;;;15.30;88.90;;;;;;5007735;28;20029;-83
2022/05/24 00:50:19;;;;;;;1.83;1.23;;;15.20;88.70;;;;;;5025640;28;20418;-84
2022/05/24 00:52:54;;;;;;;2.87;1.10;;;15.20;88.90;;;;;;4992788;28;20221;-84
2022/05/24 00:55:22;;;;;;;3.28;1.25;;;15.20;89.60;;;;;;4994368;28;20030;-83
2022/05/24 00:57:56;;;;;;;3.03;1.45;;;15.20;90.10;;;;;;5011980;28;20061;-85
2022/05/24 01:00:23;;;;;;;1.88;1.15;;;15.20;89.60;;;;;;5007399;28;20128;-85
2022/05/24 01:02:50;;;;;;;3.17;1.60;;;15.20;90.10;;;;;;4972706;28;20457;-83
2022/05/24 01:05:22;;;;;;;4.30;1.30;;;15.20;90.00;;;;;;5026636;28;20089;-84
2022/05/24 01:07:47;;;;;;;3.25;1.20;;;15.20;90.00;;;;;;4986151;28;20029;-85
2022/05/24 01:10:30;;;;;;;2.25;1.23;;;15.20;90.00;;;;;;5019693;28;20091;-85
2022/05/24 01:13:21;;;;;;;2.92;1.30;;;15.10;90.00;;;;;;4995038;28;20553;-84
2022/05/24 01:15:47;;;;;;;2.33;1.03;;;15.10;89.30;;;;;;4979006;28;20663;-85
2022/05/24 01:18:14;;;;;;;4.25;1.33;;;15.10;90.20;;;;;;4998590;28;20699;-84
2022/05/24 01:20:43;;;;;;;3.67;1.13;;;15.10;90.20;;;;;;4993411;28;20048;-83
2022/05/24 01:23:15;;;;;;;2.45;1.10;;;15.10;90.20;;;;;;4981887;28;20053;-84
2022/05/24 01:26:03;;;;;;;2.50;1.15;;;15.10;90.30;;;;;;4978833;28;20041;-85
2022/05/24 01:28:34;;;;;;;2.67;1.30;;;15.20;89.90;;;;;;4986233;28;20395;-84
2022/05/24 01:31:01;;;;;;;2.40;1.08;;;15.20;90.30;;;;;;4985387;28;20068;-84
2022/05/24 01:36:13;;;;;;;2.70;1.17;;;15.20;90.40;;;;;;5021405;28;20539;-84
2022/05/24 01:38:45;;;;;;;5.18;1.40;;;15.20;90.40;;;;;;4981937;28;20042;-85
2022/05/24 01:41:16;;;;;;;3.23;1.07;;;15.20;90.30;;;;;;4990271;28;20056;-84
2022/05/24 01:43:43;;;;;;;2.58;1.00;;;15.20;90.40;;;;;;4983688;28;20030;-84
2022/05/24 01:46:11;;;;;;;2.70;1.10;;;15.20;90.50;;;;;;5008208;28;20043;-84
2022/05/24 01:48:43;;;;;;;3.88;1.30;;;15.20;90.50;;;;;;4976694;28;20038;-83
2022/05/24 01:51:12;;;;;;;4.28;1.08;;;15.20;90.80;;;;;;4997217;28;20084;-84
2022/05/24 01:53:47;;;;;;;2.20;0.90;;;15.20;90.50;;;;;;4990530;28;20033;-83
2022/05/24 01:56:19;;;;;;;1.75;0.95;;;15.30;90.30;;;;;;5004641;28;20084;-84
2022/05/24 01:58:50;;;;;;;2.75;1.15;;;15.30;90.30;;;;;;5000171;28;20645;-83
2022/05/24 02:01:27;;;;;;;5.68;1.27;;;15.30;90.10;;;;;;5011170;28;20534;-84
2022/05/24 02:03:53;;;;;;;1.92;1.00;;;15.20;89.90;;;;;;4979715;28;21162;-84
2022/05/24 02:06:23;;;;;;;2.00;1.10;;;15.20;90.10;;;;;;5022793;28;20014;-84
2022/05/24 02:08:49;;;;;;;2.38;1.00;;;15.20;90.00;;;;;;4998784;28;20037;-84
2022/05/24 02:11:17;;;;;;;2.23;1.20;;;15.10;90.10;;;;;;5005029;28;20053;-83
2022/05/24 02:13:45;;;;;;;3.67;1.08;;;15.10;90.10;;;;;;5003118;28;20037;-84
2022/05/24 02:16:15;;;;;;;3.40;1.10;;;15.10;90.10;;;;;;4998349;28;20030;-83
2022/05/24 02:18:44;;;;;;;2.90;1.15;;;15.10;90.20;;;;;;4972704;28;20085;-84
2022/05/24 02:21:10;;;;;;;2.53;0.98;;;15.10;90.30;;;;;;4993596;28;20034;-83
2022/05/24 02:23:46;;;;;;;2.83;1.00;;;15.00;90.20;;;;;;4996191;28;20091;-84
2022/05/24 02:26:13;;;;;;;3.85;1.20;;;15.00;90.00;;;;;;4993313;28;20390;-84
2022/05/24 02:28:39;;;;;;;3.83;1.00;;;15.00;90.30;;;;;;5000269;28;20148;-84
2022/05/24 02:31:13;;;;;;;2.95;0.98;;;14.90;90.30;;;;;;5008908;28;20385;-83
2022/05/24 02:33:39;;;;;;;1.97;1.00;;;14.90;90.40;;;;;;4990520;28;20040;-84
2022/05/24 02:36:06;;;;;;;1.98;0.93;;;14.90;90.50;;;;;;4983724;28;20454;-83
2022/05/24 02:38:32;;;;;;;3.72;1.30;;;14.90;90.60;;;;;;4987986;28;20065;-84
2022/05/24 02:44:03;;;;;;;2.33;1.05;;;15.00;90.70;;;;;;4979656;28;20555;-84
2022/05/24 02:46:33;;;;;;;2.00;0.77;;;15.00;90.90;;;;;;4996155;28;20626;-83
2022/05/24 02:48:59;;;;;;;2.63;0.90;;;15.00;90.60;;;;;;4992817;28;20025;-84
2022/05/24 02:51:26;;;;;;;1.98;0.98;;;14.90;90.70;;;;;;4996648;28;20159;-83
2022/05/24 02:53:52;;;;;;;4.03;1.20;;;15.00;90.80;;;;;;4997086;28;20203;-83
2022/05/24 02:56:18;;;;;;;2.45;0.90;;;15.00;90.80;;;;;;4998472;28;20056;-82
2022/05/24 02:58:44;;;;;;;3.33;0.93;;;15.00;90.70;;;;;;4969680;28;20394;-81
2022/05/24 03:01:22;;;;;;;1.15;0.80;;;15.00;90.70;;;;;;5007183;28;20054;-82
2022/05/24 03:03:50;;;;;;;2.72;0.82;;;15.00;90.60;;;;;;4977852;28;22762;-81
2022/05/24 03:06:16;;;;;;;1.70;1.00;;;15.00;90.60;;;;;;5003349;28;20030;-82
2022/05/24 03:11:26;;;;;;;1.53;0.77;;;15.00;90.60;;;;;;5006210;28;20261;-82
2022/05/24 03:16:37;;;;;;;1.95;0.88;;;15.00;90.70;;;;;;4991404;28;20503;-81
2022/05/24 03:19:02;;;;;;;2.22;0.95;;;15.00;90.60;;;;;;5006479;28;20044;-82
2022/05/24 03:21:28;;;;;;;3.23;0.80;;;15.00;90.50;;;;;;5003403;28;20037;-81
2022/05/24 03:23:54;;;;;;;1.83;0.82;;;14.90;90.50;;;;;;4981694;28;20222;-81
2022/05/24 03:26:20;;;;;;;3.10;0.80;;;14.90;90.50;;;;;;5029265;28;20030;-80
2022/05/24 03:28:47;;;;;;;2.08;1.00;;;14.90;90.50;;;;;;5000646;28;20382;-82
2022/05/24 03:31:15;;;;;;;2.53;1.00;;;14.90;90.40;;;;;;5001165;28;20037;-81
2022/05/24 03:33:40;;;;;;;3.70;1.20;;;14.90;90.40;;;;;;5005798;28;20094;-81
2022/05/24 03:36:06;;;;;;;3.00;1.10;;;14.90;90.40;;;;;;5016308;28;20041;-82
2022/05/24 03:38:32;;;;;;;4.37;1.10;;;14.90;90.50;;;;;;4995840;28;20033;-81
2022/05/24 03:40:58;;;;;;;3.07;1.00;;;14.80;90.50;;;;;;5026572;28;20560;-82
2022/05/24 03:43:24;;;;;;;2.85;0.95;;;14.90;90.50;;;;;;5010279;28;20057;-81
2022/05/24 03:45:58;;;;;;;3.47;1.10;;;14.80;90.50;;;;;;4979157;28;20332;-82
2022/05/24 03:48:24;;;;;;;2.80;1.00;;;14.80;90.30;;;;;;5007175;28;20033;-81
2022/05/24 03:50:49;;;;;;;1.98;0.80;;;14.80;90.50;;;;;;4997573;28;20056;-80
2022/05/24 03:53:15;;;;;;;2.60;0.80;;;14.80;90.50;;;;;;4998083;28;20079;-82
2022/05/24 03:55:41;;;;;;;2.30;0.75;;;14.80;90.50;;;;;;5008390;28;20029;-81
2022/05/24 03:58:06;;;;;;;2.70;1.00;;;14.80;90.50;;;;;;5013181;28;20049;-82
2022/05/24 04:00:37;;;;;;;2.92;0.82;;;14.70;90.80;;;;;;4978902;28;20041;-81
2022/05/24 04:03:05;;;;;;;2.55;0.98;;;14.70;90.30;;;;;;4988269;28;20037;-81
2022/05/24 04:05:31;;;;;;;1.73;0.80;;;14.70;90.50;;;;;;4988989;28;20061;-84
2022/05/24 04:07:59;;;;;;;1.20;0.70;;;14.70;90.50;;;;;;4996607;28;20428;-82
2022/05/24 04:10:25;;;;;;;2.85;0.82;;;14.70;90.50;;;;;;4985195;28;20132;-83
2022/05/24 04:12:51;;;;;;;2.53;0.80;;;14.70;90.40;;;;;;4987263;28;20361;-83
2022/05/24 04:15:18;;;;;;;4.50;0.90;;;14.70;90.50;;;;;;5000301;28;20505;-83
2022/05/24 04:17:45;;;;;;;1.77;0.70;;;14.70;90.40;;;;;;4986889;28;20448;-83
2022/05/24 04:20:10;;;;;;;2.35;0.80;;;14.60;90.40;;;;;;4998756;28;20033;-82
2022/05/24 04:22:36;;;;;;;1.88;0.60;;;14.60;90.40;;;;;;5006398;28;20052;-83
2022/05/24 04:25:03;;;;;;;1.90;0.70;;;14.60;90.40;;;;;;4974328;28;20045;-82
2022/05/24 04:27:28;;;;;;;3.03;0.80;;;14.60;90.40;;;;;;4998079;28;20485;-82
2022/05/24 04:29:54;;;;;;;1.80;0.70;;;14.60;90.70;;;;;;5003832;28;20095;-82
2022/05/24 04:32:21;;;;;;;2.53;0.80;;;14.60;90.40;;;;;;4976571;28;20529;-83
2022/05/24 04:34:46;;;;;;;3.83;0.80;;;14.60;90.30;;;;;;4988090;28;20033;-83
2022/05/24 04:37:12;;;;;;;1.77;0.80;;;14.50;90.30;;;;;;4985373;28;20263;-83
2022/05/24 04:39:38;;;;;;;2.35;0.70;;;14.50;90.20;;;;;;4983820;28;20175;-83
2022/05/24 04:42:21;;;;;;;2.27;0.80;;;14.50;90.20;;;;;;4995556;28;20311;-83
2022/05/24 04:44:48;;;;;;;1.92;0.73;;;14.40;90.30;;;;;;4980045;28;20492;-83
2022/05/24 04:47:15;;;;;;;1.33;0.55;;;14.50;90.30;;;;;;4985074;28;20049;-83
2022/05/24 04:49:44;;;;;;;2.35;0.95;;;14.40;90.40;;;;;;5005658;28;20373;-83
2022/05/24 04:52:12;;;;;;;2.53;0.60;;;14.40;90.30;;;;;;4987813;28;20038;-83
2022/05/24 04:54:39;;;;;;;3.03;0.80;;;14.40;90.40;;;;;;4996856;28;20414;-83
2022/05/24 04:57:07;;;;;;;1.48;0.80;;;14.30;90.50;;;;;;4974874;28;20578;-82
2022/05/24 04:59:33;;;;;;;1.17;0.70;;;14.30;90.60;;;;;;4948658;28;20140;-82
2022/05/24 05:01:59;;;;;;;2.10;0.90;;;14.30;90.70;;;;;;4962426;28;20041;-83
2022/05/24 05:04:25;;;;;;;1.13;0.70;;;14.30;90.90;;;;;;4971363;28;20041;-83
2022/05/24 05:06:51;;;;;;;3.50;0.90;;;14.30;91.00;;;;;;4964974;28;20033;-83
2022/05/24 05:09:17;;;;;;;2.67;0.90;;;14.40;91.10;;;;;;4975628;28;20454;-83
2022/05/24 05:11:43;;;;;;;1.30;0.80;;;14.40;91.00;;;;;;4992955;28;20185;-83
2022/05/24 05:14:10;;;;;;;3.63;1.00;;;14.40;91.00;;;;;;4994168;28;20045;-83
2022/05/24 05:16:37;;;;;;;3.33;0.80;;;14.40;91.10;;;;;;4981872;28;20323;-83
2022/05/24 05:19:04;;;;;;;3.20;1.15;;;14.50;91.10;;;;;;4953651;28;20045;-83
2022/05/24 05:21:32;;;;;;;2.38;1.10;;;14.50;90.90;;;;;;4961748;28;20037;-84
2022/05/24 05:23:58;;;;;;;2.55;1.20;;;14.50;90.90;;;;;;4955036;28;20034;-83
2022/05/24 05:26:24;;;;;;;3.05;1.27;;;14.50;90.80;;;;;;4973187;28;20036;-84
2022/05/24 05:28:50;;;;;;;2.27;1.30;;;14.50;90.80;;;;;;4970069;28;20026;-83
2022/05/24 05:31:22;;;;;;;3.50;1.20;;;14.60;90.90;;;;;;4969201;28;20034;-83
2022/05/24 05:33:49;;;;;;;2.50;1.25;;;14.60;91.00;;;;;;4979570;28;20192;-82
2022/05/24 05:36:16;;;;;;;3.78;1.10;;;14.60;90.90;;;;;;4958953;28;20046;-80
2022/05/24 05:38:46;;;;;;;2.28;1.25;;;14.60;91.10;;;;;;4991187;28;21601;-84
2022/05/24 05:41:13;;;;;;;3.03;1.48;;;14.60;91.20;;;;;;4972113;28;20030;-81
2022/05/24 05:43:39;;;;;;;2.77;1.00;;;14.70;91.30;;;;;;4998705;28;20243;-82
2022/05/24 05:46:04;;;;;;;2.65;1.60;;;14.70;91.40;;;;;;5002951;28;20578;-81
2022/05/24 05:48:30;;;;;;;4.68;1.35;;;14.80;91.50;;;;;;4965802;28;20417;-82
2022/05/24 05:50:56;;;;;;;4.23;1.40;;;14.80;91.40;;;;;;4975460;28;20312;-82
2022/05/24 05:53:22;;;;;;;3.63;1.40;;;14.80;91.50;;;;;;4991546;28;20049;-80
2022/05/24 05:55:48;;;;;;;3.70;1.30;;;14.90;91.70;;;;;;4973473;28;20056;-81
2022/05/24 05:58:14;;;;;;;2.97;1.30;;;15.00;91.60;;;;;;5008849;28;20041;-81
2022/05/24 06:00:41;;;;;;;3.90;1.50;;;15.10;91.70;;;;;;4999247;28;20523;-81
2022/05/24 06:03:08;;;;;;;5.32;1.40;;;15.20;91.80;;;;;;4999629;28;20037;-81
2022/05/24 06:05:34;;;;;;;2.47;1.33;;;15.20;91.80;;;;;;4965321;28;20580;-81
2022/05/24 06:08:01;;;;;;;2.57;1.40;;;15.30;92.00;;;;;;4989556;28;20037;-81
2022/05/24 06:10:28;;;;;;;2.90;1.50;;;15.40;91.80;;;;;;4994842;28;20224;-80
2022/05/24 06:12:56;;;;;;;2.17;1.13;;;15.50;91.40;;;;;;5001616;28;20037;-81
2022/05/24 06:15:25;;;;;;;3.23;1.40;;;15.60;91.30;;;;;;4985467;28;20069;-81
2022/05/24 06:17:52;;;;;;;3.35;1.13;;;15.60;91.20;;;;;;4996548;28;20038;-81
2022/05/24 06:20:20;;;;;;;2.13;1.20;;;15.60;91.20;;;;;;4997716;28;20575;-79
2022/05/24 06:22:46;;;;;;;2.88;1.20;;;15.60;91.20;;;;;;4983608;28;20270;-82
2022/05/24 06:25:12;;;;;;;3.10;1.38;;;15.70;91.60;;;;;;5011283;28;20448;-80
2022/05/24 06:27:38;;;;;;;3.47;1.30;;;15.70;91.50;;;;;;4986451;28;20290;-82
2022/05/24 06:30:05;;;;;;;2.40;1.23;;;15.80;91.50;;;;;;5003118;28;20476;-82
2022/05/24 06:32:30;;;;;;;4.00;1.30;;;15.90;91.40;;;;;;5013273;28;20051;-81
2022/05/24 06:34:56;;;;;;;3.53;1.27;;;16.00;91.70;;;;;;4984600;28;20062;-82
2022/05/24 06:37:22;;;;;;;3.63;1.20;;;16.10;91.60;;;;;;4980001;28;20568;-82
2022/05/24 06:39:48;;;;;;;2.47;1.10;;;16.10;91.40;;;;;;5003847;28;21157;-82
2022/05/24 06:42:14;;;;;;;3.13;1.10;;;16.20;91.40;;;;;;5008145;28;20076;-82
2022/05/24 06:44:40;;;;;;;3.50;1.23;;;16.30;91.50;;;;;;4968870;28;20076;-81
2022/05/24 06:47:07;;;;;;;2.93;1.17;;;16.30;91.60;;;;;;5005818;28;20022;-81
2022/05/24 06:49:33;;;;;;;2.78;1.38;;;16.40;91.10;;;;;;4993538;28;20045;-81
2022/05/24 06:51:59;;;;;;;2.83;1.30;;;16.40;90.40;;;;;;5007497;28;20414;-81
2022/05/24 06:54:25;;;;;;;2.43;1.20;;;16.50;90.40;;;;;;5006390;28;20048;-80
2022/05/24 06:56:50;;;;;;;1.37;1.20;;;16.50;90.70;;;;;;5001474;28;20866;-82
2022/05/24 07:04:45;;;;;;;2.33;1.10;;;16.60;90.80;;;;;;5000400;28;20246;-83
2022/05/24 07:07:11;;;;;;;2.75;0.90;;;16.60;90.90;;;;;;5013721;28;20799;-82
2022/05/24 07:09:40;;;;;;;1.10;1.00;;;16.70;90.70;;;;;;4984184;28;20033;-82
2022/05/24 07:12:06;;;;;;;1.30;0.90;;;16.80;90.80;;;;;;4993104;28;20553;-81
2022/05/24 07:14:35;;;;;;;1.88;0.98;;;16.90;91.10;;;;;;4980650;28;20131;-82
2022/05/24 07:17:03;;;;;;;1.93;1.20;;;16.90;90.30;;;;;;4981026;28;20026;-82
2022/05/24 07:19:30;;;;;;;2.28;1.00;;;17.00;90.70;;;;;;5001573;28;20064;-82
2022/05/24 07:21:56;;;;;;;2.38;1.20;;;17.00;90.70;;;;;;4988761;28;20073;-81
2022/05/24 07:24:21;;;;;;;1.63;1.10;;;17.10;90.40;;;;;;5016002;28;20505;-82
2022/05/24 07:26:47;;;;;;;2.45;1.13;;;17.10;90.70;;;;;;5009200;28;20132;-82
2022/05/24 07:29:13;;;;;;;2.10;1.20;;;17.10;90.60;;;;;;4995793;28;20450;-82
2022/05/24 07:31:38;;;;;;;3.45;1.35;;;17.10;90.60;;;;;;4992674;28;20236;-82
2022/05/24 07:34:05;;;;;;;2.10;1.27;;;17.20;90.10;;;;;;5000108;28;20029;-82
2022/05/24 07:36:31;;;;;;;2.50;1.30;;;17.20;89.60;;;;;;4982590;28;20061;-81
2022/05/24 07:38:58;;;;;;;2.50;1.17;;;17.20;90.20;;;;;;4998998;28;20037;-81
2022/05/24 07:46:53;;;;;;;1.63;1.20;;;17.70;91.50;;;;;;5013572;28;20586;-82
2022/05/24 07:49:19;;;;;;;2.95;1.00;;;17.90;90.90;;;;;;5029047;28;20025;-82
2022/05/24 07:51:44;;;;;;;1.77;1.20;;;18.00;90.40;;;;;;4982535;28;20259;-82
2022/05/24 07:54:10;;;;;;;1.83;1.00;;;18.20;90.30;;;;;;4983738;28;20029;-81
2022/05/24 07:56:35;;;;;;;1.58;0.80;;;18.30;90.40;;;;;;4987139;28;20243;-82
2022/05/24 07:59:01;;;;;;;1.47;0.80;;;18.40;90.40;;;;;;4999976;28;20048;-83
2022/05/24 08:01:27;;;;;;;1.27;0.90;;;18.50;89.40;;;;;;4992654;28;20129;-82
2022/05/24 08:03:53;;;;;;;2.20;1.10;;;18.50;89.00;;;;;;5022893;28;20120;-82
2022/05/24 08:06:19;;;;;;;1.77;0.80;;;18.50;87.40;;;;;;4984176;28;20129;-81
2022/05/24 08:08:44;;;;;;;3.10;0.80;;;18.50;87.00;;;;;;4992225;28;20515;-82
2022/05/24 08:11:10;;;;;;;1.33;0.82;;;18.50;87.40;;;;;;4982312;28;20105;-82
2022/05/24 08:13:36;;;;;;;2.42;0.90;;;18.50;86.50;;;;;;4981146;28;20116;-82
2022/05/24 08:16:03;;;;;;;1.47;0.80;;;18.50;86.80;;;;;;4973660;28;20105;-83
2022/05/24 08:18:30;;;;;;;1.20;0.80;;;18.40;88.10;;;;;;5011092;28;20040;-82
2022/05/24 08:20:56;;;;;;;1.13;0.70;;;18.50;89.40;;;;;;5024314;28;20181;-82
2022/05/24 08:23:23;;;;;;;1.88;0.70;;;18.60;88.90;;;;;;4993350;28;20274;-82
2022/05/24 08:25:50;;;;;;;1.25;0.90;;;18.70;90.10;;;;;;4989102;28;20271;-82
2022/05/24 08:28:16;;;;;;;1.93;0.80;;;19.00;91.30;;;;;;4985894;28;20115;-82
2022/05/24 08:30:43;;;;;;;3.20;0.90;;;19.20;92.00;;;;;;4994831;28;20613;-81
2022/05/24 08:33:12;;;;;;;1.60;0.70;;;19.60;91.60;;;;;;4986985;28;20080;-82
2022/05/24 08:35:38;;;;;;;2.13;1.00;;;20.00;90.50;;;;;;5008075;28;20218;-82
2022/05/24 08:38:06;;;;;;;0.80;0.65;;;20.20;90.40;;;;;;5009204;28;20034;-83
2022/05/24 08:40:35;;;;;;;1.70;0.73;;;20.40;91.10;;;;;;4977697;28;20181;-82
2022/05/24 08:43:39;;;;;;;2.35;0.82;;;20.70;90.20;;;;;;5003290;28;20117;-83
2022/05/24 08:49:13;;;;;;;1.20;0.68;;;21.30;83.90;;;;;;4993027;28;20445;-82
2022/05/24 08:52:01;;;;;;;0.82;0.70;;;21.50;82.30;;;;;;5008422;28;20191;-82
2022/05/24 08:54:43;;;;;;;1.90;0.70;;;21.40;79.10;;;;;;4962938;28;20351;-82
2022/05/24 08:57:18;;;;;;;2.17;0.60;;;21.30;77.40;;;;;;4993917;28;20390;-81
2022/05/24 08:59:53;;;;;;;1.10;0.75;;;21.10;79.60;;;;;;4987467;28;20040;-83
2022/05/24 09:02:20;;;;;;;0.80;0.70;;;21.00;86.40;;;;;;4975622;28;20037;-81
2022/05/24 09:04:45;;;;;;;1.52;0.80;;;21.10;88.80;;;;;;5008969;28;20277;-82
2022/05/24 09:07:23;;;;;;;2.63;0.80;;;21.20;86.40;;;;;;5007460;28;20449;-82
2022/05/24 09:10:21;;;;;;;0.70;0.60;;;21.30;81.00;;;;;;5010841;28;20041;-83
2022/05/24 09:13:02;;;;;;;1.27;0.80;;;21.40;79.70;;;;;;5004622;28;20653;-82
2022/05/24 09:15:30;;;;;;;1.83;0.80;;;21.50;85.20;;;;;;5000874;28;20033;-80
2022/05/24 09:18:05;;;;;;;2.40;0.90;;;21.90;89.50;;;;;;4980748;28;20625;-82
2022/05/24 09:20:41;;;;;;;1.20;0.80;;;22.30;87.50;;;;;;5001818;28;20559;-82
2022/05/24 09:23:39;;;;;;;1.50;0.80;;;22.50;86.80;;;;;;5021394;28;20459;-83
2022/05/24 09:26:06;;;;;;;1.63;0.80;;;22.80;81.40;;;;;;4981904;28;20030;-82
2022/05/24 09:28:46;;;;;;;0.60;0.60;;;22.80;85.10;;;;;;4982738;28;20033;-83
2022/05/24 09:31:32;;;;;;;0.77;0.60;;;22.70;77.60;;;;;;5011299;28;20485;-81
2022/05/24 09:34:07;;;;;;;1.27;0.60;;;22.50;78.50;;;;;;5000427;28;20045;-82
2022/05/24 09:36:33;;;;;;;1.48;0.70;;;22.30;80.10;;;;;;5004389;28;20494;-81
2022/05/24 09:38:59;;;;;;;2.17;0.70;;;22.10;81.10;;;;;;4995930;28;20112;-82
2022/05/24 09:41:24;;;;;;;2.03;0.60;;;21.90;80.10;;;;;;4994572;28;20435;-82
2022/05/24 09:44:12;;;;;;;1.13;0.75;;;21.60;79.90;;;;;;5015309;28;22678;-83
2022/05/24 09:46:41;;;;;;;1.50;0.77;;;21.40;77.40;;;;;;4986427;28;20017;-82
2022/05/24 09:49:27;;;;;;;0.80;0.77;;;21.30;85.20;;;;;;4998517;28;20047;-83
2022/05/24 09:51:56;;;;;;;1.75;0.80;;;21.60;80.70;;;;;;5020116;28;20111;-83
2022/05/24 09:54:26;;;;;;;1.30;0.85;;;21.90;90.00;;;;;;4990217;28;20111;-83
2022/05/24 09:56:59;;;;;;;1.75;0.70;;;22.20;87.20;;;;;;4974151;28;20054;-84
2022/05/24 09:59:26;;;;;;;1.58;0.70;;;22.40;84.90;;;;;;4991710;28;20034;-82
2022/05/24 10:01:54;;;;;;;1.63;0.80;;;22.70;90.20;;;;;;5009185;28;20124;-82
2022/05/24 10:04:27;;;;;;;1.95;1.05;;;23.10;90.80;;;;;;5010129;28;20035;-82
2022/05/24 10:07:19;;;;;;;1.50;0.93;;;23.60;88.30;;;;;;4987372;28;20793;-83
2022/05/24 10:10:07;;;;;;;3.72;0.80;;;24.00;87.80;;;;;;5011872;28;20042;-82
2022/05/24 10:12:47;;;;;;;0.85;0.68;;;24.50;88.70;;;;;;5019307;28;20172;-82
2022/05/24 10:15:37;;;;;;;0.87;0.50;;;24.90;80.00;;;;;;5013855;28;20124;-83
2022/05/24 10:18:06;;;;;;;0.77;0.50;;;25.00;76.20;;;;;;5003499;28;20409;-83
2022/05/24 10:20:49;;;;;;;0.73;0.60;;;24.90;79.00;;;;;;4996347;28;20046;-83
2022/05/24 10:23:26;;;;;;;1.35;0.60;;;24.70;72.40;;;;;;5003958;28;20029;-82
2022/05/24 10:26:29;;;;;;;1.45;0.60;;;24.20;70.80;;;;;;5000480;28;20060;-83
2022/05/24 10:28:55;;;;;;;0.87;0.50;;;23.80;72.20;;;;;;4985204;28;21432;-83
2022/05/24 10:31:49;;;;;;;1.10;0.52;;;23.50;78.60;;;;;;5014562;28;20038;-82
2022/05/24 10:40:34;;;;;;;0.98;0.80;;;23.60;82.10;;;;;;5013450;28;20076;-83
2022/05/24 10:43:42;;;;;;;1.15;0.80;;;23.90;77.60;;;;;;5002511;28;20057;-83
2022/05/24 10:46:15;;;;;;;1.90;0.80;;;24.20;72.40;;;;;;4991829;28;20151;-83
2022/05/24 10:48:54;;;;;;;1.90;0.70;;;24.30;76.80;;;;;;4993875;28;20033;-83
2022/05/24 10:51:47;;;;;;;2.20;0.80;;;24.20;74.10;;;;;;4990796;28;20563;-83
2022/05/24 10:54:42;;;;;;;1.13;0.60;;;23.80;69.60;;;;;;4989696;28;20030;-83
2022/05/24 10:57:19;;;;;;;2.15;0.70;;;23.20;68.90;;;;;;4991448;28;20551;-86
2022/05/24 10:59:48;;;;;;;0.90;0.80;;;22.60;71.60;;;;;;4990649;28;21319;-85
2022/05/24 11:02:44;;;;;;;1.60;0.80;;;22.00;72.90;;;;;;4989445;28;20041;-83
2022/05/24 11:05:15;;;;;;;1.47;0.80;;;21.50;73.60;;;;;;4996592;28;20217;-84
2022/05/24 11:07:41;;;;;;;1.52;0.80;;;21.20;78.90;;;;;;5015811;28;20033;-82
2022/05/24 11:10:41;;;;;;;1.33;0.70;;;21.10;81.10;;;;;;4997101;28;20037;-82
2022/05/24 11:13:12;;;;;;;0.90;0.70;;;21.10;80.30;;;;;;4992728;28;20052;-83
2022/05/24 11:15:47;;;;;;;1.83;0.80;;;21.30;82.60;;;;;;4985459;28;20068;-84
2022/05/24 11:18:24;;;;;;;2.57;0.90;;;21.60;84.30;;;;;;4994734;28;20060;-83
2022/05/24 11:20:59;;;;;;;1.40;0.85;;;21.90;81.70;;;;;;4994042;28;20108;-81
2022/05/24 11:23:32;;;;;;;0.90;0.70;;;22.30;86.00;;;;;;5018164;28;20049;-83
2022/05/24 11:26:10;;;;;;;1.58;1.00;;;22.70;85.50;;;;;;4996139;28;20589;-84
2022/05/24 11:28:45;;;;;;;1.30;0.70;;;23.10;84.10;;;;;;5014003;28;20494;-83
2022/05/24 11:31:40;;;;;;;0.50;0.40;;;23.40;84.60;;;;;;4999647;28;20498;-83
2022/05/24 11:34:18;;;;;;;1.75;0.70;;;23.60;75.20;;;;;;4994002;28;20256;-82
2022/05/24 11:36:48;;;;;;;3.15;0.57;;;23.70;73.20;;;;;;4986075;28;20095;-83
2022/05/24 11:39:27;;;;;;;2.25;0.73;;;23.50;70.60;;;;;;5001327;28;20046;-85
2022/05/24 11:42:48;;;;;;;0.98;0.80;;;23.10;66.10;;;;;;4986587;28;20148;-83
2022/05/24 11:45:29;;;;;;;1.03;0.60;;;22.40;63.00;;;;;;4928451;28;20043;-84
2022/05/24 11:47:59;;;;;;;1.00;0.43;;;21.70;67.90;;;;;;4973605;28;20307;-82
2022/05/24 11:50:30;;;;;;;0.60;0.40;;;21.20;76.00;;;;;;5001714;28;20034;-81
2022/05/24 11:53:43;;;;;;;2.80;0.60;;;20.90;77.80;;;;;;4989579;28;20224;-83
2022/05/24 11:56:08;;;;;;;0.60;0.60;;;20.90;77.50;;;;;;4989276;28;20174;-84
2022/05/24 11:58:34;;;;;;;0.67;0.60;;;20.90;81.30;;;;;;5015151;28;20537;-83
2022/05/24 12:01:03;;;;;;;1.17;0.50;;;20.90;81.80;;;;;;4988702;28;20648;-83
2022/05/24 12:09:21;;;;;;;1.48;0.50;;;21.30;79.50;;;;;;5006754;28;20390;-82
2022/05/24 12:11:48;;;;;;;1.48;0.60;;;21.60;85.50;;;;;;4986777;28;20119;-83
2022/05/24 12:14:19;;;;;;;2.40;0.70;;;21.90;85.90;;;;;;5011053;28;20041;-83
2022/05/24 12:17:14;;;;;;;1.92;0.60;;;22.10;81.20;;;;;;4983489;28;20033;-82
2022/05/24 12:19:42;;;;;;;1.43;0.50;;;22.40;77.50;;;;;;4998723;28;20034;-82
2022/05/24 12:22:30;;;;;;;1.17;0.50;;;22.50;82.70;;;;;;4997758;28;25649;-82
2022/05/24 12:25:05;;;;;;;1.13;0.60;;;22.70;69.90;;;;;;4994263;28;20053;-81
2022/05/24 12:27:35;;;;;;;1.20;0.60;;;22.90;78.50;;;;;;4996655;28;20025;-82
2022/05/24 12:30:22;;;;;;;2.65;0.68;;;23.10;79.50;;;;;;4985507;28;20545;-82
2022/05/24 12:32:49;;;;;;;0.90;0.60;;;23.20;67.50;;;;;;5006892;28;20493;-83
2022/05/24 12:35:17;;;;;;;1.70;0.60;;;23.40;80.50;;;;;;4973025;28;20461;-83
2022/05/24 12:37:56;;;;;;;1.27;0.60;;;23.50;77.90;;;;;;4980099;28;20239;-82
2022/05/24 12:40:32;;;;;;;0.85;0.60;;;23.60;72.10;;;;;;4985068;28;20033;-83
2022/05/24 12:43:12;;;;;;;0.70;0.50;;;23.70;76.00;;;;;;5006526;28;20141;-81
2022/05/24 12:45:41;;;;;;;0.50;0.50;;;23.80;76.80;;;;;;5003502;28;20037;-82
2022/05/24 12:48:25;;;;;;;1.05;0.70;;;23.90;78.80;;;;;;5005801;28;20705;-81
2022/05/24 12:50:59;;;;;;;1.15;0.60;;;24.00;74.50;;;;;;4965411;28;20077;-82
2022/05/24 12:53:25;;;;;;;1.20;0.80;;;24.20;74.80;;;;;;4977520;28;20033;-83
2022/05/24 12:56:02;;;;;;;1.17;0.80;;;24.30;79.90;;;;;;5002277;28;20043;-83
2022/05/24 12:58:33;;;;;;;0.88;0.70;;;24.50;74.50;;;;;;4992283;28;20049;-82
2022/05/24 13:01:30;;;;;;;1.30;0.60;;;24.60;77.50;;;;;;5003204;28;20342;-83
2022/05/24 13:04:04;;;;;;;1.05;0.63;;;24.70;67.80;;;;;;4979790;28;20140;-82
2022/05/24 13:06:32;;;;;;;1.25;0.75;;;24.70;75.10;;;;;;5017044;28;20094;-84
2022/05/24 13:09:28;;;;;;;2.40;0.90;;;24.80;78.60;;;;;;4966024;28;20164;-82
2022/05/24 13:12:00;;;;;;;1.05;0.90;;;24.90;68.40;;;;;;4993389;28;20230;-82
2022/05/24 13:14:26;;;;;;;1.13;0.70;;;25.00;77.00;;;;;;5008304;28;20409;-83
2022/05/24 13:16:52;;;;;;;0.87;0.50;;;25.10;79.10;;;;;;5007261;28;20116;-83
2022/05/24 13:19:19;;;;;;;1.35;0.52;;;25.20;77.30;;;;;;4982852;28;20107;-82
2022/05/24 13:21:45;;;;;;;0.90;0.70;;;25.20;75.10;;;;;;5005213;28;20030;-83
2022/05/24 13:24:17;;;;;;;1.23;0.50;;;25.30;77.10;;;;;;5008850;28;20064;-83
2022/05/24 13:27:04;;;;;;;1.60;0.70;;;25.40;76.40;;;;;;4990048;28;20284;-81
2022/05/24 13:33:33;;;;;;;1.33;0.70;;;25.50;73.20;;;;;;5008883;28;20038;-82
2022/05/24 13:35:02;;;;;;;1.17;0.60;;;25.70;77.10;;;;;;4982309;28;20041;-83
2022/05/24 13:37:49;;;;;;;1.00;0.70;;;25.70;75.90;;;;;;4984170;28;20472;-83
2022/05/24 13:40:15;;;;;;;1.37;0.60;;;25.70;71.40;;;;;;4986122;28;20062;-82
2022/05/24 13:42:56;;;;;;;1.73;0.70;;;25.60;73.70;;;;;;5007275;28;20060;-83
2022/05/24 13:45:26;;;;;;;1.02;0.60;;;25.30;69.90;;;;;;4995880;28;20314;-83
2022/05/24 13:47:54;;;;;;;0.75;0.70;;;25.10;71.70;;;;;;4978785;28;20030;-82